ムルマンスク の空港の天気 - METARとTAF

ムルマンスク空港 ( ULMM / MMK ) - ロシア ムルマンスク
飛行場実況気象(Metar)
観測時間10/21 18:30 MSK (10/21 15:30 UTC)
風向・風速南 2m/s
視程450m
天気現象氷霧
全天を覆う雲 鉛直視程 30m
気温-6℃
湿度100%
気圧1015hPa
METARULMM 211530Z 17002MPS 0450 0400SW R13/P2000D FZFG VV001 M06/M06 Q1015 R13/690054 TEMPO 1000 BR BKN004 RMK QBB040 OBST OBSC QFE755
過去の天気等 Google飛行場航空写真 Wunderground天気予報

過去48時間のMETAR

飛行場予報(TAF)
発表時間: 10/21 16:50 MSK (10/21 13:50 UTC)
予報対象時間: 21日18時 MSK ~ 22日18時 MSK
風向・風速南西 3m/s
視程6000m
全天を覆う雲 雲底高度 120m
21日18時 MSK ~ 21日20時 MSK に一時的に
風向・風速不定 1m/s
視程400m
天気現象氷霧
全天を覆う雲 鉛直視程 60m
21日20時 MSK ~ 21日21時 MSK に徐々に
視程400m
天気現象氷霧
全天を覆う雲 鉛直視程 60m
21日21時 MSK ~ 22日9時 MSK に一時的に
風向・風速不定 1m/s
視程1000m
天気現象もや
全天を覆う雲 雲底高度 120m
22日9時 MSK ~ 22日10時 MSK に徐々に
視程6000m
天気現象運行に影響にある天気現象が終了
全天の8割程度の雲 雲底高度 150m
全天の8割程度の雲 雲底高度 490m
TAF ULMM 211350Z 2115/2215 23003MPS 6000 OVC004
TEMPO 2115/2117 VRB01MPS 0400 FZFG VV002
BECMG 2117/2118 0400 FZFG VV002
TEMPO 2118/2206 VRB01MPS 1000 BR OVC004
BECMG 2206/2207 6000 NSW BKN005 BKN016